Time;durP1;ratioP1;P1;durP2;ratioP2;P2;SDS_P1;SDS_P2;PMS_P1;PMS_P2;Temp;Humidity;BMP_temperature;BMP_pressure;BME280_temperature;BME280_humidity;BME280_pressure;Samples;Min_cycle;Max_cycle;Signal;HPM_P1;HPM_P2
2021/05/25 00:00:37;;;;;;;2.22;2.10;;;19.90;82.90;;;;;;5050663;28;20176;-73
2021/05/25 00:03:06;;;;;;;1.88;1.88;;;19.80;82.40;;;;;;5050557;28;20258;-73
2021/05/25 00:05:33;;;;;;;1.85;1.85;;;19.70;84.10;;;;;;5038864;28;20175;-74
2021/05/25 00:07:59;;;;;;;2.15;2.10;;;19.70;82.90;;;;;;5050390;28;20188;-74
2021/05/25 00:10:31;;;;;;;2.63;2.15;;;19.70;83.50;;;;;;5050627;28;20191;-74
2021/05/25 00:12:58;;;;;;;2.00;2.00;;;19.70;84.00;;;;;;5050458;28;20175;-75
2021/05/25 00:15:27;;;;;;;2.15;2.05;;;19.70;82.90;;;;;;5049950;28;20218;-75
2021/05/25 00:17:53;;;;;;;1.98;1.88;;;19.60;83.00;;;;;;5050577;28;20179;-75
2021/05/25 00:20:20;;;;;;;2.40;2.20;;;19.70;83.20;;;;;;5049413;28;20211;-74
2021/05/25 00:22:46;;;;;;;2.17;2.00;;;19.60;83.30;;;;;;5050600;28;20188;-75
2021/05/25 00:25:14;;;;;;;5.10;2.40;;;19.60;83.90;;;;;;5050621;28;20268;-74
2021/05/25 00:27:40;;;;;;;2.67;2.58;;;19.50;83.50;;;;;;5050512;28;20270;-74
2021/05/25 00:30:09;;;;;;;3.35;3.17;;;19.50;84.30;;;;;;5052754;28;20645;-75
2021/05/25 00:32:35;;;;;;;3.25;2.85;;;19.50;84.80;;;;;;5053478;28;20176;-74
2021/05/25 00:35:02;;;;;;;2.85;2.80;;;19.40;84.90;;;;;;5050560;28;20171;-75
2021/05/25 00:37:28;;;;;;;3.10;2.97;;;19.40;84.00;;;;;;5047558;28;20182;-74
2021/05/25 00:39:53;;;;;;;3.53;3.35;;;19.40;83.80;;;;;;5040492;28;20600;-74
2021/05/25 00:42:19;;;;;;;3.47;3.38;;;19.40;85.20;;;;;;5049921;28;20184;-74
2021/05/25 00:44:45;;;;;;;3.90;3.70;;;19.40;85.30;;;;;;5049791;28;20180;-74
2021/05/25 00:47:10;;;;;;;3.83;3.60;;;19.30;85.00;;;;;;5049796;28;20209;-75
2021/05/25 00:49:36;;;;;;;3.05;2.97;;;19.30;84.70;;;;;;5049602;28;20820;-74
2021/05/25 00:52:02;;;;;;;5.35;5.05;;;19.20;85.20;;;;;;5051773;28;20656;-75
2021/05/25 00:54:28;;;;;;;4.18;3.88;;;19.20;85.00;;;;;;5049638;28;20184;-74
2021/05/25 00:56:55;;;;;;;4.50;4.15;;;19.20;84.50;;;;;;5049280;28;20778;-75
2021/05/25 00:59:21;;;;;;;4.57;4.30;;;19.20;85.60;;;;;;5049506;28;20280;-74
2021/05/25 01:01:47;;;;;;;4.13;3.80;;;19.10;86.00;;;;;;5049356;28;20191;-74
2021/05/25 01:04:12;;;;;;;4.18;3.97;;;19.10;85.20;;;;;;5049437;28;20186;-75
2021/05/25 01:06:38;;;;;;;3.88;3.60;;;19.10;85.50;;;;;;5049391;28;20183;-74
2021/05/25 01:09:04;;;;;;;5.25;4.93;;;19.00;85.50;;;;;;5049365;28;20191;-75
2021/05/25 01:11:35;;;;;;;4.63;4.32;;;19.00;84.80;;;;;;5049655;28;20176;-75
2021/05/25 01:14:02;;;;;;;6.25;5.20;;;19.00;83.90;;;;;;5049094;28;20183;-75
2021/05/25 01:16:29;;;;;;;4.95;4.65;;;19.00;85.70;;;;;;5049150;28;20860;-75
2021/05/25 01:18:56;;;;;;;5.15;4.70;;;19.00;84.90;;;;;;5047175;28;20203;-74
2021/05/25 01:21:24;;;;;;;5.72;5.00;;;19.00;85.30;;;;;;5049396;28;20186;-75
2021/05/25 01:23:50;;;;;;;5.53;5.03;;;18.90;85.40;;;;;;5049222;28;20179;-74
2021/05/25 01:26:17;;;;;;;5.57;5.13;;;19.00;84.50;;;;;;5049015;28;20255;-74
2021/05/25 01:28:44;;;;;;;5.00;4.60;;;18.90;85.10;;;;;;5049165;28;20183;-75
2021/05/25 01:31:10;;;;;;;5.60;5.07;;;18.90;85.10;;;;;;5048544;28;20188;-75
2021/05/25 01:33:37;;;;;;;5.57;4.75;;;18.90;85.70;;;;;;5048521;28;20726;-74
2021/05/25 01:36:08;;;;;;;5.03;4.63;;;18.80;84.70;;;;;;5049137;28;20875;-74
2021/05/25 01:38:35;;;;;;;7.00;4.47;;;18.80;85.40;;;;;;5049218;28;20176;-74
2021/05/25 01:41:04;;;;;;;4.97;4.38;;;18.80;85.00;;;;;;5048811;28;20194;-75
2021/05/25 01:43:30;;;;;;;4.75;4.28;;;18.80;84.60;;;;;;5048508;28;20207;-75
2021/05/25 01:45:56;;;;;;;4.63;4.43;;;18.80;86.20;;;;;;5048712;28;20267;-75
2021/05/25 01:48:22;;;;;;;4.85;4.40;;;18.70;85.80;;;;;;5048682;28;20273;-74
2021/05/25 01:50:47;;;;;;;4.90;4.60;;;18.70;85.50;;;;;;5048677;28;20686;-75
2021/05/25 01:53:21;;;;;;;5.20;4.80;;;18.70;84.80;;;;;;5050117;28;20176;-74
2021/05/25 01:55:51;;;;;;;5.75;5.15;;;18.70;84.60;;;;;;5048681;28;20183;-74
2021/05/25 01:58:22;;;;;;;6.95;5.25;;;18.60;85.50;;;;;;5048242;28;20260;-74
2021/05/25 02:00:58;;;;;;;5.40;4.90;;;18.60;84.90;;;;;;5048730;28;20188;-75
2021/05/25 02:03:24;;;;;;;4.88;4.53;;;18.60;84.90;;;;;;5048363;28;20183;-74
2021/05/25 02:05:51;;;;;;;5.35;5.00;;;18.60;86.20;;;;;;5048389;28;20197;-74
2021/05/25 02:08:19;;;;;;;6.97;5.25;;;18.50;86.70;;;;;;5048727;28;20732;-75
2021/05/25 02:10:47;;;;;;;5.68;5.28;;;18.50;86.20;;;;;;5048479;28;20183;-75
2021/05/25 02:13:27;;;;;;;5.60;5.10;;;18.40;86.00;;;;;;5048332;28;20263;-75
2021/05/25 02:15:56;;;;;;;8.23;5.20;;;18.40;86.10;;;;;;5048244;28;20189;-75
2021/05/25 02:18:25;;;;;;;6.15;5.63;;;18.30;86.40;;;;;;5046487;28;20179;-74
2021/05/25 02:20:53;;;;;;;5.57;5.07;;;18.30;86.20;;;;;;5048238;28;20686;-75
2021/05/25 02:23:20;;;;;;;5.18;4.88;;;18.30;86.50;;;;;;5048268;28;20183;-75
2021/05/25 02:25:46;;;;;;;6.25;4.25;;;18.30;86.00;;;;;;5048181;28;20582;-75
2021/05/25 02:28:12;;;;;;;5.28;4.97;;;18.20;86.10;;;;;;5047713;28;20187;-75
2021/05/25 02:30:39;;;;;;;5.15;4.60;;;18.30;85.50;;;;;;5050458;28;20184;-75
2021/05/25 02:33:12;;;;;;;5.10;4.68;;;18.30;86.70;;;;;;5048133;28;20179;-75
2021/05/25 02:35:40;;;;;;;7.15;4.55;;;18.20;86.70;;;;;;5048029;28;20637;-74
2021/05/25 02:38:08;;;;;;;6.93;4.88;;;18.10;87.20;;;;;;5047482;28;20190;-75
2021/05/25 02:40:34;;;;;;;4.85;4.55;;;18.10;87.10;;;;;;5047375;28;20234;-75
2021/05/25 02:43:01;;;;;;;8.75;5.65;;;18.00;87.30;;;;;;5047708;28;20183;-75
2021/05/25 02:45:26;;;;;;;5.72;5.18;;;18.00;86.60;;;;;;5047738;28;20186;-75
2021/05/25 02:47:52;;;;;;;6.05;5.45;;;18.00;87.40;;;;;;5047950;28;20176;-73
2021/05/25 02:50:20;;;;;;;8.88;6.30;;;17.90;87.70;;;;;;5048979;28;20183;-74
2021/05/25 02:52:48;;;;;;;5.70;5.20;;;18.00;86.60;;;;;;5049151;28;20262;-75
2021/05/25 02:55:19;;;;;;;7.07;5.88;;;18.00;86.70;;;;;;5047310;28;20200;-75
2021/05/25 02:57:45;;;;;;;6.43;5.15;;;18.00;86.90;;;;;;5047829;28;20246;-75
2021/05/25 03:00:17;;;;;;;5.88;5.43;;;18.00;87.40;;;;;;5047826;28;20219;-75
2021/05/25 03:02:43;;;;;;;6.00;5.57;;;17.90;86.60;;;;;;5047237;28;20203;-73
2021/05/25 03:05:11;;;;;;;5.88;5.38;;;18.00;86.20;;;;;;5047231;28;20207;-74
2021/05/25 03:07:38;;;;;;;6.10;5.60;;;18.00;87.20;;;;;;5047519;28;20697;-74
2021/05/25 03:10:06;;;;;;;6.32;5.78;;;18.00;86.60;;;;;;5048483;28;20191;-74
2021/05/25 03:12:33;;;;;;;12.27;5.95;;;18.00;87.40;;;;;;5051611;28;20198;-74
2021/05/25 03:14:59;;;;;;;7.30;6.55;;;18.00;86.90;;;;;;5051283;28;20693;-74
2021/05/25 03:17:25;;;;;;;6.30;5.45;;;18.00;87.50;;;;;;5051491;28;20171;-74
2021/05/25 03:19:50;;;;;;;7.00;6.25;;;18.00;86.30;;;;;;5050992;28;20211;-74
2021/05/25 03:22:18;;;;;;;6.70;5.88;;;18.00;87.50;;;;;;5050195;28;20187;-74
2021/05/25 03:24:43;;;;;;;6.07;5.47;;;18.00;86.80;;;;;;5051553;28;20720;-74
2021/05/25 03:27:09;;;;;;;6.75;5.32;;;18.00;86.80;;;;;;5051339;28;20191;-74
2021/05/25 03:29:35;;;;;;;5.90;5.32;;;18.10;87.20;;;;;;5050668;28;20195;-74
2021/05/25 03:32:01;;;;;;;5.53;5.00;;;18.10;86.90;;;;;;5050727;28;20179;-74
2021/05/25 03:34:27;;;;;;;7.20;5.45;;;18.10;87.50;;;;;;5040614;28;20199;-74
2021/05/25 03:36:52;;;;;;;5.95;5.35;;;18.00;87.40;;;;;;5043508;28;20187;-75
2021/05/25 03:39:18;;;;;;;5.43;4.47;;;18.10;86.50;;;;;;5054076;28;20211;-74
2021/05/25 03:41:44;;;;;;;6.88;5.13;;;18.10;86.70;;;;;;5066133;28;20193;-75
2021/05/25 03:44:13;;;;;;;5.50;4.85;;;18.10;85.90;;;;;;5060761;28;20195;-75
2021/05/25 03:46:40;;;;;;;6.70;4.57;;;18.20;85.80;;;;;;5057325;28;20190;-75
2021/05/25 03:49:06;;;;;;;5.72;4.82;;;18.20;86.20;;;;;;5051846;28;20237;-75
2021/05/25 03:51:32;;;;;;;5.18;4.75;;;18.30;85.80;;;;;;5054242;28;20696;-75
2021/05/25 03:53:59;;;;;;;4.60;4.30;;;18.30;86.20;;;;;;5052816;28;20179;-75
2021/05/25 03:56:31;;;;;;;6.00;4.82;;;18.30;86.00;;;;;;5050810;28;20186;-75
2021/05/25 03:58:56;;;;;;;8.82;4.60;;;18.30;86.00;;;;;;5044990;28;20215;-74
2021/05/25 04:01:25;;;;;;;5.22;4.10;;;18.30;85.90;;;;;;5040896;28;20180;-75
2021/05/25 04:03:52;;;;;;;5.05;4.63;;;18.30;85.70;;;;;;5047879;28;20183;-74
2021/05/25 04:06:19;;;;;;;5.40;4.43;;;18.30;85.70;;;;;;5052572;28;20258;-73
2021/05/25 04:08:45;;;;;;;4.45;4.10;;;18.40;85.40;;;;;;5052724;28;20187;-74
2021/05/25 04:11:12;;;;;;;7.47;3.33;;;18.50;85.20;;;;;;5057783;28;20195;-74
2021/05/25 04:13:37;;;;;;;3.33;3.13;;;18.50;85.90;;;;;;5049857;28;20180;-74
2021/05/25 04:16:04;;;;;;;3.38;3.17;;;18.50;85.20;;;;;;5060626;28;20187;-74
2021/05/25 04:18:29;;;;;;;3.13;3.03;;;18.50;85.50;;;;;;5050571;28;20192;-74
2021/05/25 04:20:55;;;;;;;3.28;3.15;;;18.50;85.90;;;;;;5060877;28;20233;-74
2021/05/25 04:23:21;;;;;;;3.65;3.40;;;18.50;85.30;;;;;;5054401;28;20656;-75
2021/05/25 04:25:47;;;;;;;3.45;3.25;;;18.50;84.90;;;;;;5050447;28;20687;-75
2021/05/25 04:28:14;;;;;;;3.97;3.63;;;18.50;85.80;;;;;;5055516;28;20187;-75
2021/05/25 04:30:41;;;;;;;4.75;3.88;;;18.50;85.60;;;;;;5056615;28;20668;-73
2021/05/25 04:33:08;;;;;;;4.03;3.65;;;18.50;84.70;;;;;;5046908;28;20183;-74
2021/05/25 04:35:34;;;;;;;4.50;3.38;;;18.50;84.90;;;;;;5053109;28;20175;-73
2021/05/25 04:38:00;;;;;;;3.88;2.95;;;18.60;85.00;;;;;;5052499;28;20289;-74
2021/05/25 04:40:26;;;;;;;4.97;3.10;;;18.60;84.70;;;;;;5050669;28;20219;-74
2021/05/25 04:42:52;;;;;;;3.00;2.70;;;18.60;84.60;;;;;;5051798;28;20207;-74
2021/05/25 04:45:18;;;;;;;7.30;3.95;;;18.70;84.40;;;;;;5050666;28;20184;-73
2021/05/25 04:47:44;;;;;;;4.30;2.92;;;18.70;84.90;;;;;;5049425;28;20182;-73
2021/05/25 04:50:11;;;;;;;2.92;2.83;;;18.70;84.40;;;;;;5050258;28;20651;-73
2021/05/25 04:52:38;;;;;;;3.20;2.78;;;18.80;84.50;;;;;;5049995;28;20180;-74
2021/05/25 04:55:05;;;;;;;4.20;3.05;;;18.80;84.20;;;;;;5051524;28;20187;-74
2021/05/25 04:57:31;;;;;;;2.50;2.30;;;18.80;84.10;;;;;;5051892;28;20188;-74
2021/05/25 04:59:57;;;;;;;2.88;2.63;;;18.80;84.10;;;;;;5043867;28;20211;-74
2021/05/25 05:02:22;;;;;;;3.97;2.20;;;18.90;84.20;;;;;;5043475;28;20583;-73
2021/05/25 05:04:48;;;;;;;2.50;2.40;;;18.90;84.10;;;;;;5048886;28;20270;-73
2021/05/25 05:07:14;;;;;;;2.33;2.03;;;19.00;83.60;;;;;;5053398;28;20574;-73
2021/05/25 05:09:40;;;;;;;2.30;2.20;;;19.00;83.30;;;;;;5047873;28;20192;-73
2021/05/25 05:12:06;;;;;;;5.07;1.88;;;19.00;83.80;;;;;;5059256;28;20194;-75
2021/05/25 05:14:32;;;;;;;2.55;2.40;;;19.10;83.50;;;;;;5047990;28;20603;-73
2021/05/25 05:16:58;;;;;;;3.25;2.70;;;19.10;83.50;;;;;;5048329;28;20187;-74
2021/05/25 05:19:23;;;;;;;3.33;3.13;;;19.20;83.40;;;;;;5047979;28;20207;-72
2021/05/25 05:21:49;;;;;;;3.20;2.47;;;19.10;82.90;;;;;;5049345;28;20196;-72
2021/05/25 05:24:15;;;;;;;2.85;2.65;;;19.20;83.20;;;;;;5054233;28;20175;-72
2021/05/25 05:26:41;;;;;;;2.53;2.42;;;19.20;83.00;;;;;;5048823;28;20183;-72
2021/05/25 05:29:06;;;;;;;3.35;2.70;;;19.20;83.10;;;;;;5047791;28;20292;-72
2021/05/25 05:31:32;;;;;;;3.83;2.40;;;19.30;82.80;;;;;;5047089;28;20186;-73
2021/05/25 05:33:58;;;;;;;4.78;2.42;;;19.30;82.80;;;;;;5046454;28;20187;-73
2021/05/25 05:36:23;;;;;;;2.10;1.92;;;19.30;83.00;;;;;;5048612;28;20176;-74
2021/05/25 05:38:49;;;;;;;2.63;2.28;;;19.40;82.80;;;;;;5048393;28;20214;-74
2021/05/25 05:41:15;;;;;;;2.25;2.15;;;19.40;83.10;;;;;;5049273;28;20679;-74
2021/05/25 05:43:41;;;;;;;1.65;1.65;;;19.40;82.90;;;;;;5048852;28;20175;-72
2021/05/25 05:46:07;;;;;;;1.88;1.77;;;19.50;83.20;;;;;;5049129;28;20231;-71
2021/05/25 05:48:32;;;;;;;1.98;1.98;;;19.60;82.90;;;;;;5047562;28;20313;-72
2021/05/25 05:50:59;;;;;;;3.22;2.55;;;19.70;83.10;;;;;;5047838;28;20261;-71
2021/05/25 05:53:25;;;;;;;4.28;1.77;;;19.70;82.60;;;;;;5047850;28;20176;-73
2021/05/25 05:55:51;;;;;;;2.95;2.85;;;19.80;82.60;;;;;;5050475;28;20179;-72
2021/05/25 05:58:17;;;;;;;2.72;2.58;;;19.90;81.90;;;;;;5049401;28;20180;-72
2021/05/25 06:00:43;;;;;;;5.97;2.20;;;19.90;82.50;;;;;;5044124;28;20223;-72
2021/05/25 06:03:10;;;;;;;2.15;2.13;;;20.00;81.90;;;;;;5048287;28;20567;-72
2021/05/25 06:05:37;;;;;;;2.78;2.67;;;20.10;82.20;;;;;;5048108;28;20212;-72
2021/05/25 06:08:04;;;;;;;4.68;3.10;;;20.20;82.20;;;;;;5046544;28;20182;-71
2021/05/25 06:10:31;;;;;;;2.40;2.20;;;20.20;81.40;;;;;;5048028;28;20597;-72
2021/05/25 06:12:57;;;;;;;2.67;2.30;;;20.30;82.20;;;;;;5048116;28;20187;-72
2021/05/25 06:15:23;;;;;;;2.97;2.67;;;20.40;81.60;;;;;;5047870;28;20199;-72
2021/05/25 06:17:49;;;;;;;3.15;2.55;;;20.50;81.00;;;;;;5047861;28;20274;-72
2021/05/25 06:20:15;;;;;;;2.70;2.60;;;20.60;80.60;;;;;;5048048;28;20282;-71
2021/05/25 06:22:42;;;;;;;3.17;2.38;;;20.70;80.80;;;;;;5047920;28;20203;-73
2021/05/25 06:25:09;;;;;;;2.85;2.65;;;20.80;80.20;;;;;;5047903;28;20190;-71
2021/05/25 06:27:36;;;;;;;5.30;2.88;;;20.90;80.40;;;;;;5047893;28;20176;-72
2021/05/25 06:30:03;;;;;;;2.38;2.28;;;21.00;79.40;;;;;;5047966;28;20190;-72
2021/05/25 06:32:29;;;;;;;7.38;3.13;;;21.10;78.80;;;;;;5047911;28;20215;-72
2021/05/25 06:34:54;;;;;;;7.00;2.78;;;21.20;79.10;;;;;;5047905;28;20272;-73
2021/05/25 06:37:20;;;;;;;5.32;2.72;;;21.30;79.10;;;;;;5047789;28;20183;-72
2021/05/25 06:39:46;;;;;;;6.18;2.70;;;21.30;78.90;;;;;;5050538;28;20264;-72
2021/05/25 06:42:12;;;;;;;2.65;2.55;;;21.40;78.60;;;;;;5046897;28;20187;-72
2021/05/25 06:44:38;;;;;;;2.85;2.67;;;21.50;78.80;;;;;;5051492;28;20190;-73
2021/05/25 06:47:04;;;;;;;5.00;2.95;;;21.60;78.00;;;;;;5047913;28;20245;-72
2021/05/25 06:49:30;;;;;;;2.47;2.28;;;21.60;77.70;;;;;;5054173;28;20938;-72
2021/05/25 06:51:57;;;;;;;2.67;2.33;;;21.70;77.90;;;;;;5071690;28;20585;-72
2021/05/25 06:54:23;;;;;;;3.20;3.00;;;21.80;77.70;;;;;;5046975;28;20183;-71
2021/05/25 06:56:48;;;;;;;3.72;3.53;;;21.80;77.50;;;;;;5043309;28;20191;-73
2021/05/25 06:59:14;;;;;;;3.28;3.10;;;21.90;77.70;;;;;;5047541;28;20215;-72
2021/05/25 07:01:40;;;;;;;2.63;2.45;;;22.00;77.30;;;;;;5051261;28;20233;-71
2021/05/25 07:04:06;;;;;;;2.97;2.65;;;22.20;77.10;;;;;;5048686;28;20262;-72
2021/05/25 07:06:31;;;;;;;3.75;2.90;;;22.30;76.30;;;;;;5052334;28;20185;-72
2021/05/25 07:08:57;;;;;;;3.17;3.08;;;22.40;76.20;;;;;;5047476;28;20187;-72
2021/05/25 07:11:23;;;;;;;3.17;2.92;;;22.50;76.30;;;;;;5055708;28;20660;-72
2021/05/25 07:13:49;;;;;;;3.63;2.90;;;22.60;76.70;;;;;;5053467;28;20311;-73
2021/05/25 07:16:15;;;;;;;3.47;3.15;;;22.70;75.90;;;;;;5041671;28;20187;-72
2021/05/25 07:18:41;;;;;;;5.47;4.90;;;22.90;76.40;;;;;;5047910;28;20167;-72
2021/05/25 07:21:07;;;;;;;5.15;3.92;;;22.90;75.00;;;;;;5053281;28;20290;-72
2021/05/25 07:23:34;;;;;;;4.13;3.83;;;22.90;75.00;;;;;;5055426;28;20257;-73
2021/05/25 07:26:00;;;;;;;7.85;3.45;;;23.00;75.70;;;;;;5054820;28;20196;-72
2021/05/25 07:28:26;;;;;;;4.03;3.72;;;23.00;75.00;;;;;;5051568;28;20183;-72
2021/05/25 07:30:52;;;;;;;4.35;4.05;;;23.10;73.90;;;;;;5050804;28;20206;-72
2021/05/25 07:33:17;;;;;;;3.95;3.70;;;23.10;74.70;;;;;;5045973;28;20621;-72
2021/05/25 07:35:43;;;;;;;4.40;4.10;;;23.10;75.00;;;;;;5048037;28;20763;-73
2021/05/25 07:38:09;;;;;;;4.05;3.85;;;23.30;74.80;;;;;;5052476;28;20190;-73
2021/05/25 07:40:35;;;;;;;4.57;4.38;;;23.40;74.30;;;;;;5046969;28;20211;-73
2021/05/25 07:43:01;;;;;;;3.88;3.33;;;23.40;74.20;;;;;;5043297;28;20183;-73
2021/05/25 07:45:28;;;;;;;3.92;3.63;;;23.40;74.10;;;;;;5045689;28;20180;-73
2021/05/25 07:47:54;;;;;;;3.67;3.53;;;23.50;74.30;;;;;;5046505;28;20587;-73
2021/05/25 07:50:20;;;;;;;6.75;3.17;;;23.60;74.60;;;;;;5047074;28;20249;-73
2021/05/25 07:52:52;;;;;;;4.78;3.40;;;23.70;74.80;;;;;;5050820;28;20209;-73
2021/05/25 07:55:21;;;;;;;3.58;3.28;;;23.70;74.10;;;;;;5051407;28;20184;-73
2021/05/25 07:57:47;;;;;;;3.60;3.30;;;23.90;73.70;;;;;;5053009;28;20591;-73
2021/05/25 08:00:14;;;;;;;3.58;3.38;;;23.90;73.60;;;;;;5053276;28;20219;-73
2021/05/25 08:02:41;;;;;;;3.47;3.25;;;24.00;73.20;;;;;;5055677;28;20179;-73
2021/05/25 08:05:08;;;;;;;3.25;3.05;;;24.10;72.50;;;;;;5051154;28;20586;-73
2021/05/25 08:07:34;;;;;;;3.33;3.13;;;24.00;72.10;;;;;;5048750;28;20254;-72
2021/05/25 08:10:00;;;;;;;2.58;2.20;;;24.10;72.70;;;;;;5052094;28;20275;-72
2021/05/25 08:12:25;;;;;;;2.63;2.53;;;24.10;73.10;;;;;;5049350;28;20254;-71
2021/05/25 08:14:53;;;;;;;3.05;2.80;;;24.10;73.00;;;;;;5050199;28;20206;-72
2021/05/25 08:17:24;;;;;;;3.13;2.92;;;24.00;73.10;;;;;;5051444;28;20684;-71
2021/05/25 08:19:50;;;;;;;2.75;2.60;;;24.00;72.90;;;;;;5051082;28;20293;-71
2021/05/25 08:22:16;;;;;;;4.85;2.78;;;24.00;73.70;;;;;;5056105;28;20187;-72
2021/05/25 08:24:43;;;;;;;4.35;2.90;;;24.00;73.80;;;;;;5045298;28;20595;-73
2021/05/25 08:27:09;;;;;;;3.50;2.75;;;24.00;73.80;;;;;;5054566;28;20245;-72
2021/05/25 08:29:35;;;;;;;2.38;2.38;;;24.10;74.00;;;;;;5052806;28;20198;-72
2021/05/25 08:32:01;;;;;;;3.25;2.65;;;24.10;73.60;;;;;;5065313;28;20182;-72
2021/05/25 08:34:27;;;;;;;3.00;2.92;;;24.10;73.70;;;;;;5050229;28;20679;-71
2021/05/25 08:36:53;;;;;;;5.22;3.10;;;24.20;73.50;;;;;;5044062;28;20653;-71
2021/05/25 08:39:19;;;;;;;3.53;3.33;;;24.30;72.80;;;;;;5050050;28;20211;-71
2021/05/25 08:41:45;;;;;;;2.78;2.70;;;24.30;72.50;;;;;;5048087;28;20550;-71
2021/05/25 08:44:10;;;;;;;2.97;2.78;;;24.40;72.50;;;;;;5049799;28;20271;-72
2021/05/25 08:46:38;;;;;;;3.45;3.10;;;24.40;72.80;;;;;;5050694;28;20175;-72
2021/05/25 08:49:05;;;;;;;6.53;2.90;;;24.50;72.50;;;;;;5053199;28;20195;-72
2021/05/25 08:51:31;;;;;;;3.33;3.10;;;24.60;72.00;;;;;;5050246;28;20656;-72
2021/05/25 08:53:59;;;;;;;3.55;2.75;;;24.70;73.50;;;;;;5049991;28;20233;-72
2021/05/25 08:56:25;;;;;;;3.38;3.20;;;24.80;72.80;;;;;;5048386;28;20575;-71
2021/05/25 08:58:50;;;;;;;3.45;3.20;;;24.90;72.20;;;;;;5048586;28;20188;-72
2021/05/25 09:01:18;;;;;;;8.25;4.60;;;25.00;72.40;;;;;;5050089;28;20184;-72
2021/05/25 09:03:58;;;;;;;4.85;3.47;;;25.00;71.50;;;;;;5048800;28;20200;-71
2021/05/25 09:06:37;;;;;;;4.43;4.03;;;25.00;72.90;;;;;;5050092;28;20686;-71
2021/05/25 09:09:10;;;;;;;6.22;4.03;;;25.10;72.20;;;;;;5047970;28;21572;-71
2021/05/25 09:12:01;;;;;;;4.40;4.30;;;25.10;70.80;;;;;;5063061;28;20194;-72
2021/05/25 09:14:28;;;;;;;4.28;4.07;;;25.10;70.80;;;;;;5047561;28;20326;-72
2021/05/25 09:17:16;;;;;;;4.68;4.47;;;25.00;71.20;;;;;;5047600;28;20266;-72
2021/05/25 09:19:47;;;;;;;4.65;4.35;;;25.00;72.50;;;;;;5048582;28;20211;-71
2021/05/25 09:22:36;;;;;;;4.18;3.97;;;25.00;72.40;;;;;;5047930;28;20194;-72
2021/05/25 09:25:30;;;;;;;4.32;4.22;;;25.00;72.30;;;;;;5049138;28;20207;-72
2021/05/25 09:28:14;;;;;;;4.25;4.00;;;25.00;72.00;;;;;;5053011;28;20283;-72
2021/05/25 09:30:42;;;;;;;4.13;4.00;;;25.00;70.80;;;;;;5047894;28;20566;-72
2021/05/25 09:33:09;;;;;;;6.50;4.85;;;25.10;71.40;;;;;;5045266;28;20171;-72
2021/05/25 09:35:38;;;;;;;5.00;4.80;;;25.00;71.30;;;;;;5046498;28;20736;-72
2021/05/25 09:38:18;;;;;;;4.97;4.63;;;25.00;71.30;;;;;;5045537;28;20233;-72
2021/05/25 09:40:50;;;;;;;4.88;4.57;;;25.00;71.40;;;;;;5045374;28;20257;-72
2021/05/25 09:43:19;;;;;;;4.68;4.47;;;24.90;71.40;;;;;;5048013;28;20172;-72
2021/05/25 09:46:02;;;;;;;4.57;4.35;;;24.90;71.00;;;;;;5045820;28;20186;-71
2021/05/25 09:48:50;;;;;;;6.15;4.53;;;24.80;71.50;;;;;;5043029;28;20176;-71
2021/05/25 09:51:23;;;;;;;4.88;4.47;;;24.80;71.30;;;;;;5041691;28;20234;-74
2021/05/25 09:53:49;;;;;;;4.57;4.38;;;24.90;72.00;;;;;;5044033;28;20202;-72
2021/05/25 09:56:26;;;;;;;4.13;3.92;;;25.00;72.10;;;;;;5046763;28;20214;-72
2021/05/25 09:58:54;;;;;;;4.97;4.57;;;25.10;71.40;;;;;;5047371;28;20186;-73
2021/05/25 10:01:19;;;;;;;6.22;4.70;;;25.10;71.20;;;;;;5043709;28;20704;-74
2021/05/25 10:03:50;;;;;;;5.55;4.90;;;25.10;70.70;;;;;;5048669;28;20214;-72
2021/05/25 10:06:17;;;;;;;4.68;4.40;;;25.20;71.80;;;;;;5048030;28;20186;-73
2021/05/25 10:08:45;;;;;;;4.85;4.55;;;25.20;71.30;;;;;;5048556;28;20187;-72
2021/05/25 10:11:16;;;;;;;4.55;4.15;;;25.40;71.40;;;;;;5043673;28;20763;-72
2021/05/25 10:13:43;;;;;;;4.43;4.18;;;25.60;70.70;;;;;;5047762;28;20183;-72
2021/05/25 10:16:13;;;;;;;3.97;3.67;;;25.70;70.70;;;;;;5045715;28;20643;-72
2021/05/25 10:21:11;;;;;;;4.45;3.90;;;25.90;70.90;;;;;;5050570;28;20611;-72
2021/05/25 10:23:39;;;;;;;3.75;3.55;;;25.90;70.90;;;;;;5078670;28;20183;-72
2021/05/25 10:26:15;;;;;;;4.35;3.95;;;25.80;69.80;;;;;;5047538;28;20219;-72
2021/05/25 10:28:47;;;;;;;3.33;3.25;;;25.60;70.20;;;;;;5052248;28;20193;-72
2021/05/25 10:31:28;;;;;;;4.15;3.75;;;25.60;70.70;;;;;;5048443;28;20193;-72
2021/05/25 10:34:17;;;;;;;5.28;3.50;;;25.70;70.70;;;;;;5048030;28;20264;-72
2021/05/25 10:36:48;;;;;;;4.03;3.83;;;26.10;71.50;;;;;;5047269;28;20818;-72
2021/05/25 10:39:37;;;;;;;4.32;3.97;;;26.70;69.80;;;;;;5046039;28;20218;-72
2021/05/25 10:42:31;;;;;;;3.50;3.40;;;27.60;69.20;;;;;;5048536;28;20631;-72
2021/05/25 10:45:11;;;;;;;4.00;3.40;;;28.40;66.30;;;;;;5042778;28;20190;-72
2021/05/25 10:53:19;;;;;;;6.13;4.13;;;29.10;63.60;;;;;;5039167;28;20198;-71
2021/05/25 10:55:44;;;;;;;4.70;4.45;;;28.70;64.80;;;;;;5046697;28;20656;-72
2021/05/25 10:58:30;;;;;;;5.13;3.70;;;28.50;64.70;;;;;;5040628;28;20183;-71
2021/05/25 11:01:06;;;;;;;4.75;4.20;;;28.40;65.30;;;;;;5040846;28;20223;-71
2021/05/25 11:03:32;;;;;;;5.20;4.93;;;28.40;65.20;;;;;;5046851;28;20244;-74
2021/05/25 11:06:06;;;;;;;4.10;3.90;;;28.30;66.10;;;;;;5048955;28;20186;-72
2021/05/25 11:08:39;;;;;;;5.07;3.80;;;28.20;66.00;;;;;;5041142;28;20191;-72
2021/05/25 11:11:09;;;;;;;4.97;3.50;;;28.30;66.70;;;;;;5036659;28;20219;-72
2021/05/25 11:13:38;;;;;;;3.67;3.47;;;28.50;65.70;;;;;;5043231;28;20711;-72
2021/05/25 11:16:07;;;;;;;6.95;4.05;;;28.50;65.50;;;;;;5041330;28;20676;-72
2021/05/25 11:22:04;;;;;;;3.67;3.38;;;28.60;65.40;;;;;;5041821;28;20272;-73
2021/05/25 11:24:37;;;;;;;4.60;3.33;;;28.70;64.50;;;;;;5047586;28;20180;-72
2021/05/25 11:27:14;;;;;;;5.13;3.60;;;29.00;65.70;;;;;;5048987;28;20182;-73
2021/05/25 11:29:53;;;;;;;3.38;3.17;;;29.40;64.80;;;;;;5044761;28;20198;-73
2021/05/25 11:32:30;;;;;;;3.97;3.67;;;29.50;63.70;;;;;;5052336;28;20187;-73
2021/05/25 11:35:08;;;;;;;3.92;3.30;;;29.50;64.00;;;;;;5055262;28;20174;-71
2021/05/25 11:37:37;;;;;;;3.60;3.40;;;29.40;63.90;;;;;;5052729;28;20258;-72
2021/05/25 11:40:10;;;;;;;3.50;3.40;;;29.30;64.50;;;;;;5061877;28;20233;-72
2021/05/25 11:42:36;;;;;;;3.72;3.42;;;29.10;64.30;;;;;;5054516;28;20188;-73
2021/05/25 11:45:02;;;;;;;3.38;3.17;;;29.10;64.50;;;;;;5047691;28;20471;-73
2021/05/25 11:47:28;;;;;;;3.00;2.80;;;29.20;64.70;;;;;;5049355;28;20724;-72
2021/05/25 11:49:55;;;;;;;3.80;3.53;;;29.50;65.10;;;;;;5054974;28;20193;-72
2021/05/25 11:52:28;;;;;;;4.03;3.72;;;29.90;64.40;;;;;;5046103;28;20267;-72
2021/05/25 11:55:00;;;;;;;3.00;2.80;;;30.30;63.30;;;;;;5046550;28;20245;-72
2021/05/25 11:57:38;;;;;;;3.70;3.38;;;31.10;62.20;;;;;;5048930;28;20190;-71
2021/05/25 12:00:10;;;;;;;5.35;3.80;;;32.00;60.50;;;;;;5050172;28;20211;-72
2021/05/25 12:02:42;;;;;;;4.10;3.97;;;32.70;60.20;;;;;;5054695;28;20195;-72
2021/05/25 12:05:26;;;;;;;4.22;3.95;;;32.80;60.40;;;;;;5043662;28;20195;-71
2021/05/25 12:07:55;;;;;;;4.38;4.18;;;32.70;60.30;;;;;;5046636;28;20193;-72
2021/05/25 12:10:29;;;;;;;4.10;3.63;;;32.50;59.40;;;;;;5048747;28;20206;-71
2021/05/25 12:13:15;;;;;;;5.07;4.70;;;32.40;59.90;;;;;;5059994;28;20183;-72
2021/05/25 12:15:42;;;;;;;5.25;4.82;;;31.80;59.10;;;;;;5045572;28;20676;-72
2021/05/25 12:18:12;;;;;;;4.38;4.18;;;31.20;60.70;;;;;;5048753;28;20186;-71
2021/05/25 12:20:45;;;;;;;4.57;4.18;;;30.90;61.60;;;;;;5048345;28;20220;-71
2021/05/25 12:23:16;;;;;;;4.22;4.03;;;31.10;61.50;;;;;;5049597;28;20570;-72
2021/05/25 12:25:47;;;;;;;4.32;4.10;;;31.30;61.50;;;;;;5047425;28;20195;-72
2021/05/25 12:28:17;;;;;;;3.97;3.65;;;31.50;60.50;;;;;;5044877;28;20273;-72
2021/05/25 12:30:55;;;;;;;4.93;4.50;;;31.90;60.40;;;;;;5049626;28;20191;-72
2021/05/25 12:33:26;;;;;;;4.25;4.00;;;32.10;60.70;;;;;;5048620;28;20207;-71
2021/05/25 12:35:53;;;;;;;4.35;4.25;;;31.80;60.70;;;;;;5048653;28;20201;-71
2021/05/25 12:38:21;;;;;;;4.57;4.20;;;31.60;60.90;;;;;;5049268;28;20180;-71
2021/05/25 12:40:59;;;;;;;3.72;3.53;;;31.20;61.20;;;;;;5049311;28;20215;-71
2021/05/25 12:43:33;;;;;;;3.47;3.38;;;30.90;61.00;;;;;;5050624;28;21118;-70
2021/05/25 12:46:07;;;;;;;4.30;3.90;;;31.10;61.80;;;;;;5044432;28;20188;-70
2021/05/25 12:48:38;;;;;;;3.53;3.33;;;31.70;61.40;;;;;;5043482;28;20202;-71
2021/05/25 12:51:05;;;;;;;7.20;3.45;;;32.20;60.80;;;;;;5051213;28;20627;-71
2021/05/25 12:53:31;;;;;;;3.70;3.47;;;32.70;60.20;;;;;;5053920;28;20974;-72
2021/05/25 12:56:03;;;;;;;4.30;3.20;;;33.20;58.40;;;;;;5049245;28;20183;-72
2021/05/25 12:58:43;;;;;;;5.75;3.15;;;33.40;58.90;;;;;;5051509;28;20183;-70
2021/05/25 13:01:34;;;;;;;3.63;3.42;;;33.50;57.40;;;;;;5043751;28;20211;-71
2021/05/25 13:04:02;;;;;;;4.20;3.35;;;33.40;58.70;;;;;;5043088;28;20187;-71
2021/05/25 13:09:15;;;;;;;3.15;3.00;;;32.70;58.00;;;;;;5053868;28;21465;-71